WetterOnline ( http://www.wetteronline.de )

Wetter aktuell Ingolstadt

Aktuelles Wetter: Gelbelsee (539m)

6-stündlich | Neueste Meldungen
Ortszeit Temperatur Wetter
So, 15.07. 20:00 19.3° C leicht bewölkt
So, 15.07. 14:00 22.4° C wolkig
So, 15.07. 8:00 19.2° C fast wolkenlos
So, 15.07. 2:00 16.6° C wolkig
Sa, 14.07. 20:00 22.6° C fast wolkenlos
Sa, 14.07. 14:00 23.0° C -
Sa, 14.07. 8:00 17.3° C leicht bewölkt
Sa, 14.07. 2:00 15.7° C wolkenlos
Ortszeit Temperatur Wetter
So, 15.07. 21:30 18.3° C bedeckt
So, 15.07. 21:20 18.3° C bedeckt
So, 15.07. 21:10 18.3° C bedeckt
So, 15.07. 21:00 19.0° C bedeckt
So, 15.07. 20:50 19.0° C bedeckt
So, 15.07. 20:40 19.2° C bedeckt
So, 15.07. 20:30 19.1° C wolkig
So, 15.07. 20:00 19.3° C leicht bewölkt
So, 15.07. 19:30 20.7° C bedeckt
So, 15.07. 19:00 20.1° C bedeckt
So, 15.07. 18:30 21.1° C bedeckt
Ortszeit Relative Feuchte Sichtweite
So, 15.07. 20:00 71% 40 km
So, 15.07. 14:00 63% 35 km
So, 15.07. 8:00 67% 30 km
So, 15.07. 2:00 73% 35 km
Sa, 14.07. 20:00 58% 55 km
Sa, 14.07. 14:00 62% 17 km
Sa, 14.07. 8:00 78% 30 km
Sa, 14.07. 2:00 79% 40 km
Ortszeit Relative Feuchte Sichtweite
So, 15.07. 21:30 78% 30 km
So, 15.07. 21:20 78% -
So, 15.07. 21:10 77% -
So, 15.07. 21:00 72% 35 km
So, 15.07. 20:50 72% -
So, 15.07. 20:40 70% -
So, 15.07. 20:30 71% 40 km
So, 15.07. 20:00 71% 40 km
So, 15.07. 19:30 63% 50 km
So, 15.07. 19:00 67% 45 km
So, 15.07. 18:30 63% 25 km
Ortszeit Niederschlagsmenge Niederschlagsart
So, 15.07. 20:00 0.2 l/m2 in 12 Std. -
So, 15.07. 14:00 0.2 l/m2 in 6 Std. Regen
So, 15.07. 8:00 0.0 l/m2 in 12 Std. -
So, 15.07. 2:00 0.0 l/m2 in 6 Std. -
Sa, 14.07. 20:00 4 l/m2 in 12 Std. Regen
Sa, 14.07. 14:00 4 l/m2 in 6 Std. Regenschauer
Sa, 14.07. 8:00 0.1 l/m2 in 12 Std. Regen
Sa, 14.07. 2:00 0.0 l/m2 in 6 Std. -
Ortszeit Niederschlagsmenge Niederschlagsart
So, 15.07. 21:30 0.0 l/m2 in 1 Std. -
So, 15.07. 21:20 keine Meldung -
So, 15.07. 21:10 keine Meldung -
So, 15.07. 21:00 0.0 l/m2 in 1 Std. -
So, 15.07. 20:50 keine Meldung -
So, 15.07. 20:40 keine Meldung -
So, 15.07. 20:30 0.0 l/m2 in 1 Std. -
So, 15.07. 20:00 0.0 l/m2 in 1 Std. -
So, 15.07. 19:30 0.0 l/m2 in 1 Std. -
So, 15.07. 19:00 0.0 l/m2 in 1 Std. -
So, 15.07. 18:30 0.0 l/m2 in 1 Std. -
Ortszeit Stärke Spitze Richtung
km/h Bft. km/h Grad Sektor
So, 15.07. 20:00 7 2 25 10° N
So, 15.07. 14:00 9 2 30 350° N
So, 15.07. 8:00 6 1 9 170° S
So, 15.07. 2:00 4 1 7 150° SO
Sa, 14.07. 20:00 4 1 29 240° SW
Sa, 14.07. 14:00 7 2 47 240° SW
Sa, 14.07. 8:00 2 1 13 50° NO
Sa, 14.07. 2:00 4 1 18 330° NW
Ortszeit Stärke Spitze Richtung
km/h Bft. km/h Grad Sektor
So, 15.07. 21:30 7 2 11 160° S
So, 15.07. 21:20 7 2 - 160° S
So, 15.07. 21:10 - - - - -
So, 15.07. 21:00 6 1 17 140° SO
So, 15.07. 20:50 6 1 - 140° SO
So, 15.07. 20:40 6 1 - 160° S
So, 15.07. 20:30 7 2 18 160° S
So, 15.07. 20:00 7 2 11 10° N
So, 15.07. 19:30 4 1 11 260° W
So, 15.07. 19:00 9 2 24 250° W
So, 15.07. 18:30 11 2 25 210° SW
Ortszeit Untergrenze Bedeckung Gattung
total tief tief mittel hoch
So, 15.07. 20:00 4200 m 2/8 2/8 - - -
So, 15.07. 14:00 1350 m 8/8 3/8 - - -
So, 15.07. 8:00 3600 m 1/8 1/8 - - -
So, 15.07. 2:00 8400 m 7/8 0/8 - - -
Sa, 14.07. 20:00 8700 m 2/8 0/8 - - -
Sa, 14.07. 14:00 - - - - - -
Sa, 14.07. 8:00 2100 m 4/8 3/8 - - -
Sa, 14.07. 2:00 - 0/8 0/8 - - -
Ortszeit Bedeckungsgrad in Achtel und Wolkenuntergrenze
So, 15.07. 21:30 3(3900m) 8(5700m) 8(6900m)
So, 15.07. 21:20 3(3900m) 8(5700m) 8(6900m)
So, 15.07. 21:10 4(3900m) 8(6000m) 8(6900m)
So, 15.07. 21:00 1(3900m) 8(6900m) 8(7800m)
So, 15.07. 20:50 1(3900m) 8(6900m) 8(7800m)
So, 15.07. 20:40 3(6300m) 8(6900m) 8(7800m)
So, 15.07. 20:30 3(4500m) 7(7200m) 7(8100m)
So, 15.07. 20:00 2(4200m) 4(8100m)
So, 15.07. 19:30 7(3900m) 8(4500m) 8(6000m)
So, 15.07. 19:00 8(4500m) 8(8400m) 8(9000m)
So, 15.07. 18:30 1(3300m) 8(4500m)
Ortszeit Luftdruck NN (hPa) Tendenz (hPa in 3 Std.)
So, 15.07. 20:00 1014 - 1,0
So, 15.07. 14:00 1014 - 1,0
So, 15.07. 8:00 1016 + 0,2
So, 15.07. 2:00 1017 - 0,1
Sa, 14.07. 20:00 1016 - 0,8
Sa, 14.07. 14:00 1017 - 0,4
Sa, 14.07. 8:00 1019 + 0,2
Sa, 14.07. 2:00 1019 0,0
Ortszeit Luftdruck NN (hPa) Tendenz (hPa in 3 Std.)
So, 15.07. 21:30 1016 + 0,7
So, 15.07. 21:20 1016 keine Meldung
So, 15.07. 21:10 1015 keine Meldung
So, 15.07. 21:00 1015 + 0,2
So, 15.07. 20:50 1015 keine Meldung
So, 15.07. 20:40 1015 keine Meldung
So, 15.07. 20:30 1015 - 0,3
So, 15.07. 20:00 1014 - 1,0
So, 15.07. 19:30 1014 - 1,1
So, 15.07. 19:00 1014 - 0,5
So, 15.07. 18:30 1014 - 0,3
Ortszeit Schneehöhe (cm)
So, 15.07. 20:00 -
So, 15.07. 14:00 -
So, 15.07. 8:00 -
So, 15.07. 2:00 -
Sa, 14.07. 20:00 -
Sa, 14.07. 14:00 -
Sa, 14.07. 8:00 -
Sa, 14.07. 2:00 -
Ortszeit Schneehöhe (cm)
So, 15.07. 21:30 -
So, 15.07. 21:20 -
So, 15.07. 21:10 -
So, 15.07. 21:00 -
So, 15.07. 20:50 -
So, 15.07. 20:40 -
So, 15.07. 20:30 -
So, 15.07. 20:00 -
So, 15.07. 19:30 -
So, 15.07. 19:00 -
So, 15.07. 18:30 -
Link zu dieser Seite / Seite empfehlen

Das Wetter in ...